createdAt,value
2017-12-31T00:00:07.538Z,923.25
2017-12-31T00:00:20.215Z,923.25
2017-12-31T00:00:33.280Z,923.27
2017-12-31T00:00:45.883Z,923.23
2017-12-31T00:00:58.949Z,923.25
2017-12-31T00:01:12.026Z,923.26
2017-12-31T00:01:24.650Z,923.32
2017-12-31T00:01:36.696Z,923.3
2017-12-31T00:01:49.299Z,923.29
2017-12-31T00:02:01.913Z,923.29
2017-12-31T00:02:14.937Z,923.28
2017-12-31T00:02:27.527Z,923.33
2017-12-31T00:02:40.060Z,923.3
2017-12-31T00:02:52.584Z,923.28
2017-12-31T00:03:05.570Z,923.28
2017-12-31T00:03:18.621Z,923.26
2017-12-31T00:03:31.150Z,923.29
2017-12-31T00:03:43.218Z,923.28
2017-12-31T00:03:56.289Z,923.28
2017-12-31T00:04:08.884Z,923.3
2017-12-31T00:04:21.375Z,923.32
2017-12-31T00:04:33.463Z,923.29
2017-12-31T00:04:45.095Z,923.32
2017-12-31T00:04:58.150Z,923.3
2017-12-31T00:05:11.189Z,923.35
2017-12-31T00:05:24.203Z,923.3
2017-12-31T00:05:36.743Z,923.33
2017-12-31T00:05:48.926Z,923.27
2017-12-31T00:06:01.538Z,923.28
2017-12-31T00:06:14.044Z,923.31
2017-12-31T00:06:27.098Z,923.3
2017-12-31T00:06:40.162Z,923.31
2017-12-31T00:06:52.696Z,923.31
2017-12-31T00:07:05.268Z,923.29
2017-12-31T00:07:17.374Z,923.28
2017-12-31T00:07:29.930Z,923.29
2017-12-31T00:07:42.519Z,923.27
2017-12-31T00:07:55.259Z,923.25
2017-12-31T00:08:07.400Z,923.3
2017-12-31T00:08:20.005Z,923.26
2017-12-31T00:08:33.118Z,923.23
2017-12-31T00:08:45.257Z,923.26
2017-12-31T00:08:58.291Z,923.26
2017-12-31T00:09:11.318Z,923.19
2017-12-31T00:09:23.448Z,923.23
2017-12-31T00:09:36.067Z,923.28
2017-12-31T00:09:48.621Z,923.28
2017-12-31T00:10:01.201Z,923.28
2017-12-31T00:10:13.775Z,923.24
2017-12-31T00:10:26.341Z,923.24
2017-12-31T00:10:39.388Z,923.3
2017-12-31T00:10:52.441Z,923.29
2017-12-31T00:11:05.468Z,923.28
2017-12-31T00:11:18.519Z,923.31
2017-12-31T00:11:31.122Z,923.34
2017-12-31T00:11:43.732Z,923.32
2017-12-31T00:11:56.818Z,923.34
2017-12-31T00:12:09.817Z,923.3
2017-12-31T00:12:22.371Z,923.28
2017-12-31T00:12:34.516Z,923.31
2017-12-31T00:12:47.118Z,923.3
2017-12-31T00:13:00.839Z,923.3
2017-12-31T00:13:13.416Z,923.32
2017-12-31T00:13:26.458Z,923.28
2017-12-31T00:13:39.042Z,923.29
2017-12-31T00:13:52.129Z,923.28
2017-12-31T00:14:05.154Z,923.27
2017-12-31T00:14:18.223Z,923.28
2017-12-31T00:14:30.799Z,923.31
2017-12-31T00:14:43.399Z,923.29
2017-12-31T00:14:55.508Z,923.26
2017-12-31T00:15:08.045Z,923.26
2017-12-31T00:15:20.621Z,923.24
2017-12-31T00:15:33.244Z,923.23
2017-12-31T00:15:45.867Z,923.19
2017-12-31T00:15:59.338Z,923.24
2017-12-31T00:16:11.935Z,923.22
2017-12-31T00:16:24.144Z,923.2
2017-12-31T00:16:35.818Z,923.22
2017-12-31T00:16:47.971Z,923.24
2017-12-31T00:17:00.534Z,923.22
2017-12-31T00:17:12.650Z,923.22
2017-12-31T00:17:25.218Z,923.2
2017-12-31T00:17:37.402Z,923.2
2017-12-31T00:17:50.402Z,923.15
2017-12-31T00:18:03.444Z,923.21
2017-12-31T00:18:16.544Z,923.21
2017-12-31T00:18:29.505Z,923.22
2017-12-31T00:18:42.072Z,923.2
2017-12-31T00:18:54.226Z,923.25
2017-12-31T00:19:07.315Z,923.18
2017-12-31T00:19:20.406Z,923.22
2017-12-31T00:19:32.950Z,923.25
2017-12-31T00:19:46.119Z,923.26
2017-12-31T00:19:58.697Z,923.23
2017-12-31T00:20:11.297Z,923.25
2017-12-31T00:20:23.880Z,923.27
2017-12-31T00:20:36.424Z,923.27
2017-12-31T00:20:49.476Z,923.26
2017-12-31T00:21:02.030Z,923.26
2017-12-31T00:21:14.527Z,923.23
2017-12-31T00:21:27.593Z,923.24
2017-12-31T00:21:40.220Z,923.26
2017-12-31T00:21:52.763Z,923.27
2017-12-31T00:22:05.390Z,923.29
2017-12-31T00:22:17.591Z,923.26
2017-12-31T00:22:30.623Z,923.26
2017-12-31T00:22:43.175Z,923.24
2017-12-31T00:22:55.712Z,923.27
2017-12-31T00:23:08.334Z,923.27
2017-12-31T00:23:20.425Z,923.32
2017-12-31T00:23:33.028Z,923.31
2017-12-31T00:23:45.108Z,923.31
2017-12-31T00:23:57.215Z,923.27
2017-12-31T00:24:10.264Z,923.28
2017-12-31T00:24:23.296Z,923.26
2017-12-31T00:24:36.391Z,923.28
2017-12-31T00:24:49.473Z,923.24
2017-12-31T00:25:02.541Z,923.27
2017-12-31T00:25:15.106Z,923.25
2017-12-31T00:25:27.727Z,923.27
2017-12-31T00:25:39.823Z,923.22
2017-12-31T00:25:52.396Z,923.27
2017-12-31T00:26:04.478Z,923.26
2017-12-31T00:26:17.020Z,923.26
2017-12-31T00:26:30.025Z,923.28
2017-12-31T00:26:43.043Z,923.26
2017-12-31T00:26:55.183Z,923.25
2017-12-31T00:27:07.639Z,923.24
2017-12-31T00:27:20.219Z,923.24
2017-12-31T00:27:33.195Z,923.26
2017-12-31T00:27:44.832Z,923.27
2017-12-31T00:27:58.043Z,923.29
2017-12-31T00:28:11.123Z,923.24
2017-12-31T00:28:24.199Z,923.24
2017-12-31T00:28:36.779Z,923.3
2017-12-31T00:28:49.831Z,923.32
2017-12-31T00:29:02.396Z,923.31
2017-12-31T00:29:14.952Z,923.32
2017-12-31T00:29:27.523Z,923.31
2017-12-31T00:29:39.640Z,923.3
2017-12-31T00:29:51.250Z,923.25
2017-12-31T00:30:03.833Z,923.31
2017-12-31T00:30:16.375Z,923.35
2017-12-31T00:30:29.431Z,923.33
2017-12-31T00:30:41.990Z,923.3
2017-12-31T00:30:54.546Z,923.33
2017-12-31T00:31:07.603Z,923.29
2017-12-31T00:31:19.218Z,923.24
2017-12-31T00:31:32.252Z,923.26
2017-12-31T00:31:44.811Z,923.28
2017-12-31T00:31:57.983Z,923.34
2017-12-31T00:32:10.999Z,923.31
2017-12-31T00:32:23.646Z,923.35
2017-12-31T00:32:36.158Z,923.32
2017-12-31T00:32:49.191Z,923.32
2017-12-31T00:33:01.806Z,923.37
2017-12-31T00:33:13.900Z,923.34
2017-12-31T00:33:26.009Z,923.35
2017-12-31T00:33:39.025Z,923.34
2017-12-31T00:33:51.542Z,923.38
2017-12-31T00:34:04.544Z,923.36
2017-12-31T00:34:17.065Z,923.35
2017-12-31T00:34:29.621Z,923.34
2017-12-31T00:34:41.705Z,923.33
2017-12-31T00:34:54.290Z,923.38
2017-12-31T00:35:06.461Z,923.39
2017-12-31T00:35:19.545Z,923.4
2017-12-31T00:35:32.672Z,923.36
2017-12-31T00:35:45.695Z,923.35
2017-12-31T00:35:58.282Z,923.4
2017-12-31T00:36:10.870Z,923.39
2017-12-31T00:36:23.413Z,923.39
2017-12-31T00:36:36.013Z,923.43
2017-12-31T00:36:48.147Z,923.41
2017-12-31T00:37:01.136Z,923.42
2017-12-31T00:37:14.258Z,923.41
2017-12-31T00:37:28.358Z,923.4
2017-12-31T00:37:41.337Z,923.41
2017-12-31T00:37:53.426Z,923.43
2017-12-31T00:38:06.471Z,923.44
2017-12-31T00:38:18.564Z,923.47
2017-12-31T00:38:31.559Z,923.47
2017-12-31T00:38:43.205Z,923.49
2017-12-31T00:38:55.750Z,923.43
2017-12-31T00:39:08.789Z,923.48
2017-12-31T00:39:21.305Z,923.5
2017-12-31T00:39:33.916Z,923.46
2017-12-31T00:39:46.960Z,923.44
2017-12-31T00:39:59.586Z,923.44
2017-12-31T00:40:12.176Z,923.47
2017-12-31T00:40:25.271Z,923.48
2017-12-31T00:40:37.887Z,923.5
2017-12-31T00:40:50.510Z,923.45
2017-12-31T00:41:03.041Z,923.47
2017-12-31T00:41:15.613Z,923.47
2017-12-31T00:41:27.670Z,923.47
2017-12-31T00:41:39.814Z,923.45
2017-12-31T00:41:52.433Z,923.45
2017-12-31T00:42:05.078Z,923.48
2017-12-31T00:42:18.090Z,923.48
2017-12-31T00:42:31.088Z,923.5
2017-12-31T00:42:43.653Z,923.47
2017-12-31T00:42:56.900Z,923.49
2017-12-31T00:43:10.770Z,923.5
2017-12-31T00:43:23.778Z,923.45
2017-12-31T00:43:36.357Z,923.51
2017-12-31T00:43:48.974Z,923.47
2017-12-31T00:44:01.547Z,923.5
2017-12-31T00:44:14.114Z,923.48
2017-12-31T00:44:27.216Z,923.46
2017-12-31T00:44:39.847Z,923.51
2017-12-31T00:44:52.480Z,923.53
2017-12-31T00:45:05.579Z,923.48
2017-12-31T00:45:18.191Z,923.49
2017-12-31T00:45:30.339Z,923.53
2017-12-31T00:45:43.424Z,923.5
2017-12-31T00:45:55.966Z,923.52
2017-12-31T00:46:09.041Z,923.5
2017-12-31T00:46:21.162Z,923.49
2017-12-31T00:46:33.751Z,923.53
2017-12-31T00:46:46.377Z,923.48
2017-12-31T00:46:58.951Z,923.53
2017-12-31T00:47:11.560Z,923.47
2017-12-31T00:47:24.707Z,923.49
2017-12-31T00:47:36.854Z,923.47
2017-12-31T00:47:49.394Z,923.5
2017-12-31T00:48:02.450Z,923.49
2017-12-31T00:48:15.003Z,923.47
2017-12-31T00:48:28.083Z,923.49
2017-12-31T00:48:40.731Z,923.48
2017-12-31T00:48:53.742Z,923.49
2017-12-31T00:49:05.844Z,923.45
2017-12-31T00:49:18.887Z,923.5
2017-12-31T00:49:31.015Z,923.48
2017-12-31T00:49:44.064Z,923.5
2017-12-31T00:49:55.741Z,923.47
2017-12-31T00:50:08.755Z,923.49
2017-12-31T00:50:21.870Z,923.49
2017-12-31T00:50:33.937Z,923.5
2017-12-31T00:50:46.997Z,923.51
2017-12-31T00:50:59.654Z,923.53
2017-12-31T00:51:11.767Z,923.49
2017-12-31T00:51:23.410Z,923.48
2017-12-31T00:51:36.492Z,923.51
2017-12-31T00:51:48.202Z,923.54
2017-12-31T00:52:00.890Z,923.54
2017-12-31T00:52:13.465Z,923.47
2017-12-31T00:52:26.523Z,923.53
2017-12-31T00:52:38.187Z,923.5
2017-12-31T00:52:50.729Z,923.51
2017-12-31T00:53:03.692Z,923.52
2017-12-31T00:53:16.752Z,923.53
2017-12-31T00:53:29.454Z,923.5
2017-12-31T00:53:41.989Z,923.53
2017-12-31T00:53:54.587Z,923.49
2017-12-31T00:54:06.691Z,923.49
2017-12-31T00:54:18.838Z,923.49
2017-12-31T00:54:31.416Z,923.49
2017-12-31T00:54:43.977Z,923.5
2017-12-31T00:54:56.703Z,923.48
2017-12-31T00:55:09.737Z,923.48
2017-12-31T00:55:22.743Z,923.49
2017-12-31T00:55:35.789Z,923.5
2017-12-31T00:55:47.897Z,923.44
2017-12-31T00:56:00.921Z,923.42
2017-12-31T00:56:13.517Z,923.48
2017-12-31T00:56:26.591Z,923.46
2017-12-31T00:56:39.589Z,923.43
2017-12-31T00:56:52.667Z,923.44
2017-12-31T00:57:05.722Z,923.44
2017-12-31T00:57:17.895Z,923.4
2017-12-31T00:57:30.938Z,923.4
2017-12-31T00:57:43.073Z,923.41
2017-12-31T00:57:55.206Z,923.38
2017-12-31T00:58:08.057Z,923.4
2017-12-31T00:58:19.712Z,923.38
2017-12-31T00:58:32.329Z,923.36
2017-12-31T00:58:45.363Z,923.39
2017-12-31T00:58:57.906Z,923.38
2017-12-31T00:59:10.997Z,923.36
2017-12-31T00:59:23.637Z,923.36
2017-12-31T00:59:36.708Z,923.36
2017-12-31T00:59:48.832Z,923.38
2017-12-31T01:00:01.863Z,923.37
2017-12-31T01:00:14.950Z,923.37
2017-12-31T01:00:27.046Z,923.37
2017-12-31T01:00:40.149Z,923.42
2017-12-31T01:00:53.194Z,923.38
2017-12-31T01:01:05.797Z,923.39
2017-12-31T01:01:18.910Z,923.38
2017-12-31T01:01:31.552Z,923.41
2017-12-31T01:01:44.086Z,923.44
2017-12-31T01:01:56.699Z,923.45
2017-12-31T01:02:09.756Z,923.4
2017-12-31T01:02:22.396Z,923.45
2017-12-31T01:02:34.957Z,923.39
2017-12-31T01:02:47.973Z,923.4
2017-12-31T01:03:00.657Z,923.4
2017-12-31T01:03:13.209Z,923.39
2017-12-31T01:03:24.371Z,923.37
2017-12-31T01:03:37.431Z,923.41
2017-12-31T01:03:50.494Z,923.47
2017-12-31T01:04:03.537Z,923.46
2017-12-31T01:04:16.096Z,923.44
2017-12-31T01:04:28.660Z,923.44
2017-12-31T01:04:41.209Z,923.43
2017-12-31T01:04:53.823Z,923.43
2017-12-31T01:05:06.366Z,923.46
2017-12-31T01:05:19.445Z,923.47
2017-12-31T01:05:32.458Z,923.46
2017-12-31T01:05:45.091Z,923.47
2017-12-31T01:05:58.159Z,923.42
2017-12-31T01:06:10.255Z,923.48
2017-12-31T01:06:22.859Z,923.46
2017-12-31T01:06:35.864Z,923.46
2017-12-31T01:06:48.915Z,923.49
2017-12-31T01:07:01.482Z,923.51
2017-12-31T01:07:14.030Z,923.49
2017-12-31T01:07:27.092Z,923.49
2017-12-31T01:07:40.118Z,923.51
2017-12-31T01:07:52.700Z,923.51
2017-12-31T01:08:05.778Z,923.54
2017-12-31T01:08:17.507Z,923.54
2017-12-31T01:08:30.477Z,923.5
2017-12-31T01:08:43.047Z,923.56
2017-12-31T01:08:55.183Z,923.53
2017-12-31T01:09:07.305Z,923.54
2017-12-31T01:09:19.862Z,923.55
2017-12-31T01:09:32.879Z,923.51
2017-12-31T01:09:45.441Z,923.56
2017-12-31T01:09:58.493Z,923.53
2017-12-31T01:10:11.460Z,923.55
2017-12-31T01:10:24.050Z,923.54
2017-12-31T01:10:37.138Z,923.54
2017-12-31T01:10:49.299Z,923.51
2017-12-31T01:11:01.855Z,923.51
2017-12-31T01:11:13.918Z,923.54
2017-12-31T01:11:26.484Z,923.51
2017-12-31T01:11:39.169Z,923.47
2017-12-31T01:11:50.744Z,923.51
2017-12-31T01:12:03.338Z,923.54
2017-12-31T01:12:15.913Z,923.54
2017-12-31T01:12:29.011Z,923.54
2017-12-31T01:12:42.074Z,923.52
2017-12-31T01:12:54.629Z,923.55
2017-12-31T01:13:07.738Z,923.54
2017-12-31T01:13:20.521Z,923.57
2017-12-31T01:13:33.133Z,923.54
2017-12-31T01:13:46.217Z,923.55
2017-12-31T01:13:59.249Z,923.56
2017-12-31T01:14:12.294Z,923.57
2017-12-31T01:14:24.955Z,923.58
2017-12-31T01:14:37.482Z,923.57
2017-12-31T01:14:50.067Z,923.6
2017-12-31T01:15:02.631Z,923.58
2017-12-31T01:15:15.209Z,923.57
2017-12-31T01:15:27.807Z,923.57
2017-12-31T01:15:40.375Z,923.59
2017-12-31T01:15:52.911Z,923.61
2017-12-31T01:16:06.023Z,923.65
2017-12-31T01:16:19.142Z,923.65
2017-12-31T01:16:32.212Z,923.67
2017-12-31T01:16:44.846Z,923.6
2017-12-31T01:16:57.014Z,923.59
2017-12-31T01:17:10.059Z,923.67
2017-12-31T01:17:22.641Z,923.64
2017-12-31T01:17:35.199Z,923.67
2017-12-31T01:17:47.759Z,923.66
2017-12-31T01:18:00.753Z,923.63
2017-12-31T01:18:13.281Z,923.66
2017-12-31T01:18:26.365Z,923.65
2017-12-31T01:18:38.981Z,923.64
2017-12-31T01:18:51.546Z,923.66
2017-12-31T01:19:04.082Z,923.64
2017-12-31T01:19:17.181Z,923.64
2017-12-31T01:19:29.866Z,923.6
2017-12-31T01:19:42.928Z,923.6
2017-12-31T01:19:55.970Z,923.6
2017-12-31T01:20:08.110Z,923.61
2017-12-31T01:20:21.137Z,923.62
2017-12-31T01:20:34.153Z,923.63
2017-12-31T01:20:47.189Z,923.62
2017-12-31T01:20:59.815Z,923.62
2017-12-31T01:21:12.864Z,923.62
2017-12-31T01:21:25.912Z,923.6
2017-12-31T01:21:37.991Z,923.57
2017-12-31T01:21:51.124Z,923.57
2017-12-31T01:22:04.129Z,923.58
2017-12-31T01:22:16.174Z,923.54
2017-12-31T01:22:28.277Z,923.53
2017-12-31T01:22:41.348Z,923.55
2017-12-31T01:22:53.554Z,923.52
2017-12-31T01:23:06.135Z,923.54
2017-12-31T01:23:19.183Z,923.57
2017-12-31T01:23:31.822Z,923.5
2017-12-31T01:23:44.449Z,923.48
2017-12-31T01:23:57.578Z,923.48
2017-12-31T01:24:10.661Z,923.5
2017-12-31T01:24:23.777Z,923.47
2017-12-31T01:24:36.820Z,923.44
2017-12-31T01:24:49.327Z,923.45
2017-12-31T01:25:01.500Z,923.46
2017-12-31T01:25:14.573Z,923.49
2017-12-31T01:25:27.162Z,923.51
2017-12-31T01:25:39.721Z,923.49
2017-12-31T01:25:52.789Z,923.46
2017-12-31T01:26:05.320Z,923.48
2017-12-31T01:26:17.449Z,923.46
2017-12-31T01:26:30.494Z,923.46
2017-12-31T01:26:43.131Z,923.45
2017-12-31T01:26:55.705Z,923.47
2017-12-31T01:27:08.745Z,923.47
2017-12-31T01:27:21.752Z,923.46
2017-12-31T01:27:34.745Z,923.46
2017-12-31T01:27:47.394Z,923.5
2017-12-31T01:27:59.547Z,923.49
2017-12-31T01:28:12.187Z,923.49
2017-12-31T01:28:25.939Z,923.51
2017-12-31T01:28:38.023Z,923.46
2017-12-31T01:28:50.164Z,923.49
2017-12-31T01:29:02.713Z,923.48
2017-12-31T01:29:15.305Z,923.49
2017-12-31T01:29:27.888Z,923.47
2017-12-31T01:29:39.989Z,923.5
2017-12-31T01:29:52.588Z,923.48
2017-12-31T01:30:05.166Z,923.49
2017-12-31T01:30:18.259Z,923.5
2017-12-31T01:30:30.421Z,923.52
2017-12-31T01:30:43.445Z,923.48
2017-12-31T01:30:55.550Z,923.49
2017-12-31T01:31:07.704Z,923.5
2017-12-31T01:31:20.727Z,923.49
2017-12-31T01:31:33.300Z,923.48
2017-12-31T01:31:45.868Z,923.48
2017-12-31T01:31:58.436Z,923.5
2017-12-31T01:32:10.622Z,923.5
2017-12-31T01:32:23.715Z,923.52
2017-12-31T01:32:36.268Z,923.52
2017-12-31T01:32:48.830Z,923.51
2017-12-31T01:33:01.347Z,923.53
2017-12-31T01:33:12.987Z,923.53
2017-12-31T01:33:26.104Z,923.5
2017-12-31T01:33:38.183Z,923.5
2017-12-31T01:33:51.171Z,923.51
2017-12-31T01:34:03.247Z,923.51
2017-12-31T01:34:16.295Z,923.49
2017-12-31T01:34:29.349Z,923.51
2017-12-31T01:34:42.402Z,923.48
2017-12-31T01:34:55.437Z,923.5
2017-12-31T01:35:08.049Z,923.54
2017-12-31T01:35:21.098Z,923.49
2017-12-31T01:35:33.665Z,923.47
2017-12-31T01:35:46.262Z,923.46
2017-12-31T01:35:59.321Z,923.44
2017-12-31T01:36:12.002Z,923.49
2017-12-31T01:36:24.542Z,923.46
2017-12-31T01:36:37.617Z,923.45
2017-12-31T01:36:49.703Z,923.45
2017-12-31T01:37:02.774Z,923.45
2017-12-31T01:37:17.204Z,923.48
2017-12-31T01:37:29.772Z,923.49
2017-12-31T01:37:42.755Z,923.47
2017-12-31T01:37:55.288Z,923.42
2017-12-31T01:38:08.330Z,923.48
2017-12-31T01:38:21.001Z,923.48
2017-12-31T01:38:34.032Z,923.49
2017-12-31T01:38:46.594Z,923.47
2017-12-31T01:38:59.672Z,923.46
2017-12-31T01:39:12.659Z,923.44
2017-12-31T01:39:25.298Z,923.43
2017-12-31T01:39:37.478Z,923.47
2017-12-31T01:39:50.097Z,923.48
2017-12-31T01:40:02.209Z,923.45
2017-12-31T01:40:15.233Z,923.43
2017-12-31T01:40:27.344Z,923.48
2017-12-31T01:40:40.409Z,923.48
2017-12-31T01:40:52.920Z,923.42
2017-12-31T01:41:05.989Z,923.47
2017-12-31T01:41:19.039Z,923.43
2017-12-31T01:41:32.063Z,923.42
2017-12-31T01:41:44.161Z,923.45
2017-12-31T01:41:57.165Z,923.44
2017-12-31T01:42:09.743Z,923.47
2017-12-31T01:42:22.281Z,923.43
2017-12-31T01:42:34.846Z,923.41
2017-12-31T01:42:47.392Z,923.42
2017-12-31T01:42:59.905Z,923.4
2017-12-31T01:43:12.426Z,923.38
2017-12-31T01:43:26.222Z,923.42
2017-12-31T01:43:39.333Z,923.41
2017-12-31T01:43:51.392Z,923.42
2017-12-31T01:44:03.559Z,923.41
2017-12-31T01:44:16.707Z,923.41
2017-12-31T01:44:28.840Z,923.37
2017-12-31T01:44:41.437Z,923.38
2017-12-31T01:44:53.778Z,923.35
2017-12-31T01:45:07.832Z,923.38
2017-12-31T01:45:20.856Z,923.37
2017-12-31T01:45:33.421Z,923.39
2017-12-31T01:45:46.009Z,923.35
2017-12-31T01:45:59.050Z,923.34
2017-12-31T01:46:11.646Z,923.41
2017-12-31T01:46:24.736Z,923.39
2017-12-31T01:46:36.827Z,923.38
2017-12-31T01:46:49.410Z,923.39
2017-12-31T01:47:02.058Z,923.37
2017-12-31T01:47:15.147Z,923.38
2017-12-31T01:47:28.194Z,923.41
2017-12-31T01:47:41.225Z,923.42
2017-12-31T01:47:54.272Z,923.35
2017-12-31T01:48:07.340Z,923.4
2017-12-31T01:48:20.434Z,923.43
2017-12-31T01:48:33.481Z,923.41
2017-12-31T01:48:46.600Z,923.41
2017-12-31T01:48:59.642Z,923.43
2017-12-31T01:49:12.840Z,923.39
2017-12-31T01:49:25.018Z,923.41
2017-12-31T01:49:38.061Z,923.42
2017-12-31T01:49:50.643Z,923.36
2017-12-31T01:50:03.199Z,923.38
2017-12-31T01:50:14.850Z,923.41
2017-12-31T01:50:27.400Z,923.42
2017-12-31T01:50:39.960Z,923.39
2017-12-31T01:50:52.076Z,923.42
2017-12-31T01:51:05.084Z,923.41
2017-12-31T01:51:18.121Z,923.4
2017-12-31T01:51:30.241Z,923.39
2017-12-31T01:51:43.266Z,923.39
2017-12-31T01:51:54.935Z,923.39
2017-12-31T01:52:07.078Z,923.38
2017-12-31T01:52:20.117Z,923.36
2017-12-31T01:52:33.170Z,923.37
2017-12-31T01:52:45.760Z,923.39
2017-12-31T01:52:57.819Z,923.39
2017-12-31T01:53:12.296Z,923.36
2017-12-31T01:53:24.901Z,923.39
2017-12-31T01:53:37.966Z,923.37
2017-12-31T01:53:50.593Z,923.38
2017-12-31T01:54:03.159Z,923.36
2017-12-31T01:54:15.374Z,923.4
2017-12-31T01:54:27.543Z,923.37
2017-12-31T01:54:40.615Z,923.37
2017-12-31T01:54:53.242Z,923.41
2017-12-31T01:55:06.307Z,923.44
2017-12-31T01:55:19.371Z,923.41
2017-12-31T01:55:32.400Z,923.39
2017-12-31T01:55:45.433Z,923.36
2017-12-31T01:55:58.043Z,923.38
2017-12-31T01:56:10.601Z,923.37
2017-12-31T01:56:23.686Z,923.38
2017-12-31T01:56:36.234Z,923.38
2017-12-31T01:56:49.310Z,923.4
2017-12-31T01:57:01.900Z,923.39
2017-12-31T01:57:14.959Z,923.35
2017-12-31T01:57:27.986Z,923.36
2017-12-31T01:57:41.056Z,923.39
2017-12-31T01:57:53.591Z,923.35
2017-12-31T01:58:06.102Z,923.36
2017-12-31T01:58:19.154Z,923.39
2017-12-31T01:58:32.943Z,923.34
2017-12-31T01:58:45.534Z,923.33
2017-12-31T01:58:58.608Z,923.35
2017-12-31T01:59:11.608Z,923.32
2017-12-31T01:59:24.721Z,923.38
2017-12-31T01:59:37.753Z,923.33
2017-12-31T01:59:50.858Z,923.39
2017-12-31T02:00:03.873Z,923.39
2017-12-31T02:00:16.427Z,923.38
2017-12-31T02:00:28.523Z,923.36
2017-12-31T02:00:41.095Z,923.39
2017-12-31T02:00:53.244Z,923.39
2017-12-31T02:01:05.338Z,923.41
2017-12-31T02:01:18.533Z,923.37
2017-12-31T02:01:31.168Z,923.41
2017-12-31T02:01:43.296Z,923.39
2017-12-31T02:01:55.868Z,923.39
2017-12-31T02:02:08.428Z,923.37
2017-12-31T02:02:20.989Z,923.35
2017-12-31T02:02:34.058Z,923.31
2017-12-31T02:02:47.028Z,923.33
2017-12-31T02:03:00.052Z,923.36
2017-12-31T02:03:13.058Z,923.38
2017-12-31T02:03:25.140Z,923.31
2017-12-31T02:03:37.689Z,923.36
2017-12-31T02:03:50.680Z,923.35
2017-12-31T02:04:03.729Z,923.36
2017-12-31T02:04:15.382Z,923.35
2017-12-31T02:04:27.496Z,923.38
2017-12-31T02:04:40.582Z,923.38
2017-12-31T02:04:53.629Z,923.35
2017-12-31T02:05:06.674Z,923.37
2017-12-31T02:05:19.205Z,923.37
2017-12-31T02:05:31.808Z,923.39
2017-12-31T02:05:43.902Z,923.38
2017-12-31T02:05:56.929Z,923.39
2017-12-31T02:06:08.998Z,923.42
2017-12-31T02:06:22.075Z,923.36
2017-12-31T02:06:35.166Z,923.39
2017-12-31T02:06:47.278Z,923.37
2017-12-31T02:06:59.881Z,923.35
2017-12-31T02:07:11.995Z,923.4
2017-12-31T02:07:24.601Z,923.4
2017-12-31T02:07:37.160Z,923.4
2017-12-31T02:07:49.754Z,923.4
2017-12-31T02:08:01.810Z,923.38
2017-12-31T02:08:14.416Z,923.43
2017-12-31T02:08:26.505Z,923.43
2017-12-31T02:08:39.192Z,923.41
2017-12-31T02:08:51.807Z,923.45
2017-12-31T02:09:04.871Z,923.43
2017-12-31T02:09:17.959Z,923.45
2017-12-31T02:09:30.075Z,923.5
2017-12-31T02:09:43.051Z,923.47
2017-12-31T02:09:55.670Z,923.49
2017-12-31T02:10:08.217Z,923.49
2017-12-31T02:10:21.256Z,923.47
2017-12-31T02:10:33.789Z,923.54
2017-12-31T02:10:46.389Z,923.54
2017-12-31T02:10:58.003Z,923.56
2017-12-31T02:11:09.719Z,923.58
2017-12-31T02:11:21.842Z,923.55
2017-12-31T02:11:34.408Z,923.57
2017-12-31T02:11:47.427Z,923.59
2017-12-31T02:11:59.994Z,923.6
2017-12-31T02:12:12.604Z,923.51
2017-12-31T02:12:25.630Z,923.51
2017-12-31T02:12:38.182Z,923.53
2017-12-31T02:12:50.777Z,923.53
2017-12-31T02:13:03.882Z,923.49
2017-12-31T02:13:16.961Z,923.46
2017-12-31T02:13:29.517Z,923.49
2017-12-31T02:13:42.325Z,923.49
2017-12-31T02:13:55.434Z,923.49
2017-12-31T02:14:08.728Z,923.47
2017-12-31T02:14:21.234Z,923.46
2017-12-31T02:14:34.238Z,923.46
2017-12-31T02:14:47.360Z,923.49
2017-12-31T02:14:59.909Z,923.48
2017-12-31T02:15:12.936Z,923.5
2017-12-31T02:15:25.515Z,923.49
2017-12-31T02:15:38.518Z,923.52
2017-12-31T02:15:51.032Z,923.49
2017-12-31T02:16:03.591Z,923.5
2017-12-31T02:16:16.640Z,923.49
2017-12-31T02:16:29.694Z,923.47
2017-12-31T02:16:42.749Z,923.45
2017-12-31T02:16:55.345Z,923.51
2017-12-31T02:17:08.393Z,923.47
2017-12-31T02:17:20.981Z,923.48
2017-12-31T02:17:33.565Z,923.48
2017-12-31T02:17:46.573Z,923.49
2017-12-31T02:17:59.623Z,923.51
2017-12-31T02:18:12.218Z,923.52
2017-12-31T02:18:24.837Z,923.53
2017-12-31T02:18:37.382Z,923.49
2017-12-31T02:18:49.784Z,923.52
2017-12-31T02:19:02.326Z,923.52
2017-12-31T02:19:15.454Z,923.47
2017-12-31T02:19:28.041Z,923.44
2017-12-31T02:19:40.175Z,923.48
2017-12-31T02:19:52.728Z,923.47
2017-12-31T02:20:05.373Z,923.42
2017-12-31T02:20:17.938Z,923.42
2017-12-31T02:20:31.003Z,923.44
2017-12-31T02:20:43.534Z,923.41
2017-12-31T02:20:56.054Z,923.41
2017-12-31T02:21:09.105Z,923.43
2017-12-31T02:21:21.737Z,923.4
2017-12-31T02:21:33.883Z,923.43
2017-12-31T02:21:45.949Z,923.39
2017-12-31T02:21:58.993Z,923.43
2017-12-31T02:22:11.577Z,923.39
2017-12-31T02:22:24.636Z,923.4
2017-12-31T02:22:37.654Z,923.4
2017-12-31T02:22:50.733Z,923.42
2017-12-31T02:23:03.313Z,923.39
2017-12-31T02:23:16.328Z,923.41
2017-12-31T02:23:28.840Z,923.38
2017-12-31T02:23:41.884Z,923.39
2017-12-31T02:23:54.434Z,923.35
2017-12-31T02:24:06.990Z,923.36
2017-12-31T02:24:19.150Z,923.35
2017-12-31T02:24:32.120Z,923.29
2017-12-31T02:24:44.724Z,923.32
2017-12-31T02:24:56.891Z,923.32
2017-12-31T02:25:09.929Z,923.32
2017-12-31T02:25:22.062Z,923.3
2017-12-31T02:25:35.134Z,923.37
2017-12-31T02:25:48.163Z,923.31
2017-12-31T02:26:00.344Z,923.4
2017-12-31T02:26:12.995Z,923.32
2017-12-31T02:26:26.130Z,923.31
2017-12-31T02:26:38.754Z,923.31
2017-12-31T02:26:50.892Z,923.32
2017-12-31T02:27:03.984Z,923.32
2017-12-31T02:27:17.034Z,923.3
2017-12-31T02:27:29.163Z,923.29
2017-12-31T02:27:41.300Z,923.3
2017-12-31T02:27:54.324Z,923.29
2017-12-31T02:28:07.375Z,923.28
2017-12-31T02:28:19.985Z,923.28
2017-12-31T02:28:33.097Z,923.28
2017-12-31T02:28:45.917Z,923.29
2017-12-31T02:28:58.576Z,923.28
2017-12-31T02:29:11.643Z,923.33
2017-12-31T02:29:23.764Z,923.26
2017-12-31T02:29:36.310Z,923.29
2017-12-31T02:29:48.874Z,923.28
2017-12-31T02:30:01.858Z,923.29
2017-12-31T02:30:14.820Z,923.29
2017-12-31T02:30:27.897Z,923.28
2017-12-31T02:30:40.971Z,923.26
2017-12-31T02:30:53.111Z,923.29
2017-12-31T02:31:06.173Z,923.28
2017-12-31T02:31:19.261Z,923.28
2017-12-31T02:31:31.421Z,923.25
2017-12-31T02:31:43.596Z,923.26
2017-12-31T02:31:56.581Z,923.27
2017-12-31T02:32:09.181Z,923.24
2017-12-31T02:32:21.782Z,923.26
2017-12-31T02:32:34.833Z,923.26
2017-12-31T02:32:46.983Z,923.3
2017-12-31T02:33:00.006Z,923.28
2017-12-31T02:33:12.601Z,923.28
2017-12-31T02:33:25.181Z,923.29
2017-12-31T02:33:37.750Z,923.29
2017-12-31T02:33:50.840Z,923.28
2017-12-31T02:34:03.437Z,923.25
2017-12-31T02:34:16.550Z,923.26
2017-12-31T02:34:28.669Z,923.25
2017-12-31T02:34:41.731Z,923.27
2017-12-31T02:34:53.446Z,923.26
2017-12-31T02:35:06.609Z,923.22
2017-12-31T02:35:19.630Z,923.23
2017-12-31T02:35:32.168Z,923.24
2017-12-31T02:35:45.188Z,923.19
2017-12-31T02:35:58.237Z,923.22
2017-12-31T02:36:11.384Z,923.2
2017-12-31T02:36:23.521Z,923.2
2017-12-31T02:36:36.103Z,923.16
2017-12-31T02:36:49.203Z,923.17
2017-12-31T02:37:01.788Z,923.16
2017-12-31T02:37:14.798Z,923.18
2017-12-31T02:37:27.838Z,923.13
2017-12-31T02:37:40.832Z,923.14
2017-12-31T02:37:53.969Z,923.11
2017-12-31T02:38:06.516Z,923.13
2017-12-31T02:38:19.604Z,923.18
2017-12-31T02:38:32.139Z,923.16
2017-12-31T02:38:43.840Z,923.16
2017-12-31T02:38:56.519Z,923.18